sensor_id;sensor_type;location;lat;lon;timestamp;P1;durP1;ratioP1;P2;durP2;ratioP2
49101;SDS011;34913;47.520;19.186;2023-09-12T00:01:18;10.77;;;5.80;;
49101;SDS011;34913;47.520;19.186;2023-09-12T00:03:44;9.10;;;5.80;;
49101;SDS011;34913;47.520;19.186;2023-09-12T00:06:09;8.75;;;6.15;;
49101;SDS011;34913;47.520;19.186;2023-09-12T00:08:34;12.93;;;6.40;;
49101;SDS011;34913;47.520;19.186;2023-09-12T00:11:04;12.52;;;6.00;;
49101;SDS011;34913;47.520;19.186;2023-09-12T00:13:31;10.77;;;6.57;;
49101;SDS011;34913;47.520;19.186;2023-09-12T00:15:57;10.13;;;6.00;;
49101;SDS011;34913;47.520;19.186;2023-09-12T00:18:23;10.43;;;6.03;;
49101;SDS011;34913;47.520;19.186;2023-09-12T00:20:49;11.02;;;6.18;;
49101;SDS011;34913;47.520;19.186;2023-09-12T00:23:15;13.82;;;6.30;;
49101;SDS011;34913;47.520;19.186;2023-09-12T00:25:41;10.13;;;6.07;;
49101;SDS011;34913;47.520;19.186;2023-09-12T00:28:07;10.68;;;5.82;;
49101;SDS011;34913;47.520;19.186;2023-09-12T00:30:32;13.88;;;6.40;;
49101;SDS011;34913;47.520;19.186;2023-09-12T00:32:58;14.93;;;6.25;;
49101;SDS011;34913;47.520;19.186;2023-09-12T00:35:23;12.73;;;6.30;;
49101;SDS011;34913;47.520;19.186;2023-09-12T00:37:48;15.13;;;6.35;;
49101;SDS011;34913;47.520;19.186;2023-09-12T00:40:14;11.75;;;6.22;;
49101;SDS011;34913;47.520;19.186;2023-09-12T00:42:39;12.80;;;6.70;;
49101;SDS011;34913;47.520;19.186;2023-09-12T00:45:06;11.90;;;6.85;;
49101;SDS011;34913;47.520;19.186;2023-09-12T00:47:32;10.02;;;6.57;;
49101;SDS011;34913;47.520;19.186;2023-09-12T00:49:58;12.38;;;6.45;;
49101;SDS011;34913;47.520;19.186;2023-09-12T00:52:25;8.63;;;6.45;;
49101;SDS011;34913;47.520;19.186;2023-09-12T00:54:53;11.23;;;6.80;;
49101;SDS011;34913;47.520;19.186;2023-09-12T00:57:20;11.35;;;6.43;;
49101;SDS011;34913;47.520;19.186;2023-09-12T00:59:47;11.13;;;6.53;;
49101;SDS011;34913;47.520;19.186;2023-09-12T01:02:12;15.73;;;7.22;;
49101;SDS011;34913;47.520;19.186;2023-09-12T01:04:38;11.38;;;6.88;;
49101;SDS011;34913;47.520;19.186;2023-09-12T01:07:04;11.88;;;7.32;;
49101;SDS011;34913;47.520;19.186;2023-09-12T01:09:30;13.02;;;6.90;;
49101;SDS011;34913;47.520;19.186;2023-09-12T01:11:57;13.18;;;7.00;;
49101;SDS011;34913;47.520;19.186;2023-09-12T01:14:22;12.35;;;6.90;;
49101;SDS011;34913;47.520;19.186;2023-09-12T01:16:48;17.38;;;7.10;;
49101;SDS011;34913;47.520;19.186;2023-09-12T01:19:14;9.63;;;6.72;;
49101;SDS011;34913;47.520;19.186;2023-09-12T01:30:04;13.75;;;6.95;;
49101;SDS011;34913;47.520;19.186;2023-09-12T01:32:32;10.73;;;6.55;;
49101;SDS011;34913;47.520;19.186;2023-09-12T01:34:58;11.07;;;6.20;;
49101;SDS011;34913;47.520;19.186;2023-09-12T01:37:24;11.18;;;6.70;;
49101;SDS011;34913;47.520;19.186;2023-09-12T01:39:51;8.23;;;6.75;;
49101;SDS011;34913;47.520;19.186;2023-09-12T01:42:18;8.68;;;6.55;;
49101;SDS011;34913;47.520;19.186;2023-09-12T01:44:45;12.32;;;6.38;;
49101;SDS011;34913;47.520;19.186;2023-09-12T01:47:14;9.73;;;6.43;;
49101;SDS011;34913;47.520;19.186;2023-09-12T01:49:42;9.18;;;6.80;;
49101;SDS011;34913;47.520;19.186;2023-09-12T01:52:10;12.27;;;6.38;;
49101;SDS011;34913;47.520;19.186;2023-09-12T01:54:36;10.07;;;6.95;;
49101;SDS011;34913;47.520;19.186;2023-09-12T01:57:03;9.05;;;6.28;;
49101;SDS011;34913;47.520;19.186;2023-09-12T01:59:29;10.98;;;6.78;;
49101;SDS011;34913;47.520;19.186;2023-09-12T02:01:55;11.38;;;6.35;;
49101;SDS011;34913;47.520;19.186;2023-09-12T02:04:20;11.23;;;6.65;;
49101;SDS011;34913;47.520;19.186;2023-09-12T02:06:46;14.32;;;7.03;;
49101;SDS011;34913;47.520;19.186;2023-09-12T02:09:11;14.30;;;6.78;;
49101;SDS011;34913;47.520;19.186;2023-09-12T02:11:37;11.38;;;6.85;;
49101;SDS011;34913;47.520;19.186;2023-09-12T02:14:02;11.32;;;6.75;;
49101;SDS011;34913;47.520;19.186;2023-09-12T02:16:28;9.70;;;6.22;;
49101;SDS011;34913;47.520;19.186;2023-09-12T02:18:54;10.95;;;6.28;;
49101;SDS011;34913;47.520;19.186;2023-09-12T02:21:20;10.18;;;6.50;;
49101;SDS011;34913;47.520;19.186;2023-09-12T02:23:45;13.95;;;6.20;;
49101;SDS011;34913;47.520;19.186;2023-09-12T02:26:10;9.55;;;6.22;;
49101;SDS011;34913;47.520;19.186;2023-09-12T02:28:36;13.98;;;6.45;;
49101;SDS011;34913;47.520;19.186;2023-09-12T02:31:01;11.18;;;7.25;;
49101;SDS011;34913;47.520;19.186;2023-09-12T02:33:27;13.10;;;7.30;;
49101;SDS011;34913;47.520;19.186;2023-09-12T02:35:52;10.52;;;7.72;;
49101;SDS011;34913;47.520;19.186;2023-09-12T02:38:18;15.82;;;7.95;;
49101;SDS011;34913;47.520;19.186;2023-09-12T02:40:44;10.10;;;6.95;;
49101;SDS011;34913;47.520;19.186;2023-09-12T02:43:09;10.38;;;7.32;;
49101;SDS011;34913;47.520;19.186;2023-09-12T02:45:34;13.48;;;7.53;;
49101;SDS011;34913;47.520;19.186;2023-09-12T02:48:00;10.90;;;7.28;;
49101;SDS011;34913;47.520;19.186;2023-09-12T02:50:25;9.20;;;7.20;;
49101;SDS011;34913;47.520;19.186;2023-09-12T02:52:53;15.00;;;7.45;;
49101;SDS011;34913;47.520;19.186;2023-09-12T02:55:18;10.32;;;7.53;;
49101;SDS011;34913;47.520;19.186;2023-09-12T02:57:44;13.10;;;7.18;;
49101;SDS011;34913;47.520;19.186;2023-09-12T03:00:09;10.55;;;7.03;;
49101;SDS011;34913;47.520;19.186;2023-09-12T03:02:36;13.30;;;8.40;;
49101;SDS011;34913;47.520;19.186;2023-09-12T03:05:02;12.02;;;7.47;;
49101;SDS011;34913;47.520;19.186;2023-09-12T03:07:27;10.25;;;7.22;;
49101;SDS011;34913;47.520;19.186;2023-09-12T03:09:54;9.80;;;7.13;;
49101;SDS011;34913;47.520;19.186;2023-09-12T03:12:20;13.82;;;7.72;;
49101;SDS011;34913;47.520;19.186;2023-09-12T03:14:45;13.63;;;8.07;;
49101;SDS011;34913;47.520;19.186;2023-09-12T03:17:10;13.65;;;7.93;;
49101;SDS011;34913;47.520;19.186;2023-09-12T03:19:36;12.07;;;7.47;;
49101;SDS011;34913;47.520;19.186;2023-09-12T03:22:01;14.07;;;7.80;;
49101;SDS011;34913;47.520;19.186;2023-09-12T03:24:27;11.43;;;7.68;;
49101;SDS011;34913;47.520;19.186;2023-09-12T03:26:53;9.80;;;7.53;;
49101;SDS011;34913;47.520;19.186;2023-09-12T03:29:19;12.57;;;7.50;;
49101;SDS011;34913;47.520;19.186;2023-09-12T03:31:45;12.50;;;7.75;;
49101;SDS011;34913;47.520;19.186;2023-09-12T03:34:10;12.52;;;7.95;;
49101;SDS011;34913;47.520;19.186;2023-09-12T03:36:35;10.27;;;7.03;;
49101;SDS011;34913;47.520;19.186;2023-09-12T03:39:01;9.18;;;7.30;;
49101;SDS011;34913;47.520;19.186;2023-09-12T03:41:28;14.15;;;8.18;;
49101;SDS011;34913;47.520;19.186;2023-09-12T03:43:53;12.73;;;7.90;;
49101;SDS011;34913;47.520;19.186;2023-09-12T03:46:19;12.98;;;7.40;;
49101;SDS011;34913;47.520;19.186;2023-09-12T03:48:45;14.18;;;8.20;;
49101;SDS011;34913;47.520;19.186;2023-09-12T03:51:11;11.90;;;7.55;;
49101;SDS011;34913;47.520;19.186;2023-09-12T03:53:36;15.70;;;7.80;;
49101;SDS011;34913;47.520;19.186;2023-09-12T03:56:02;11.65;;;7.50;;
49101;SDS011;34913;47.520;19.186;2023-09-12T03:58:27;14.93;;;7.90;;
49101;SDS011;34913;47.520;19.186;2023-09-12T04:00:53;14.10;;;7.72;;
49101;SDS011;34913;47.520;19.186;2023-09-12T04:03:18;12.50;;;7.03;;
49101;SDS011;34913;47.520;19.186;2023-09-12T04:05:46;10.18;;;6.60;;
49101;SDS011;34913;47.520;19.186;2023-09-12T04:08:12;9.93;;;6.80;;
49101;SDS011;34913;47.520;19.186;2023-09-12T04:10:38;9.77;;;7.10;;
49101;SDS011;34913;47.520;19.186;2023-09-12T04:13:03;12.73;;;6.90;;
49101;SDS011;34913;47.520;19.186;2023-09-12T04:15:28;15.63;;;7.25;;
49101;SDS011;34913;47.520;19.186;2023-09-12T04:17:54;10.65;;;6.55;;
49101;SDS011;34913;47.520;19.186;2023-09-12T04:20:19;12.48;;;6.38;;
49101;SDS011;34913;47.520;19.186;2023-09-12T04:22:45;12.10;;;7.20;;
49101;SDS011;34913;47.520;19.186;2023-09-12T04:25:10;12.38;;;6.63;;
49101;SDS011;34913;47.520;19.186;2023-09-12T04:27:36;11.75;;;6.45;;
49101;SDS011;34913;47.520;19.186;2023-09-12T04:30:01;12.70;;;6.95;;
49101;SDS011;34913;47.520;19.186;2023-09-12T04:32:27;10.35;;;6.43;;
49101;SDS011;34913;47.520;19.186;2023-09-12T04:34:52;14.70;;;6.82;;
49101;SDS011;34913;47.520;19.186;2023-09-12T04:37:18;11.88;;;6.40;;
49101;SDS011;34913;47.520;19.186;2023-09-12T04:39:44;10.85;;;6.53;;
49101;SDS011;34913;47.520;19.186;2023-09-12T04:42:10;14.55;;;7.10;;
49101;SDS011;34913;47.520;19.186;2023-09-12T04:44:39;12.65;;;6.95;;
49101;SDS011;34913;47.520;19.186;2023-09-12T04:47:06;15.27;;;6.63;;
49101;SDS011;34913;47.520;19.186;2023-09-12T04:49:31;12.05;;;6.32;;
49101;SDS011;34913;47.520;19.186;2023-09-12T04:51:57;10.63;;;6.55;;
49101;SDS011;34913;47.520;19.186;2023-09-12T04:54:22;11.27;;;7.07;;
49101;SDS011;34913;47.520;19.186;2023-09-12T04:56:47;14.50;;;7.30;;
49101;SDS011;34913;47.520;19.186;2023-09-12T04:59:13;18.52;;;7.85;;
49101;SDS011;34913;47.520;19.186;2023-09-12T05:01:38;12.18;;;7.40;;
49101;SDS011;34913;47.520;19.186;2023-09-12T05:04:07;17.58;;;8.43;;
49101;SDS011;34913;47.520;19.186;2023-09-12T05:06:32;13.57;;;7.70;;
49101;SDS011;34913;47.520;19.186;2023-09-12T05:08:58;12.13;;;7.90;;
49101;SDS011;34913;47.520;19.186;2023-09-12T05:11:23;14.25;;;8.23;;
49101;SDS011;34913;47.520;19.186;2023-09-12T05:13:49;15.18;;;8.73;;
49101;SDS011;34913;47.520;19.186;2023-09-12T05:16:15;16.40;;;9.10;;
49101;SDS011;34913;47.520;19.186;2023-09-12T05:18:40;12.95;;;8.52;;
49101;SDS011;34913;47.520;19.186;2023-09-12T05:21:06;12.98;;;8.65;;
49101;SDS011;34913;47.520;19.186;2023-09-12T05:23:31;11.75;;;8.95;;
49101;SDS011;34913;47.520;19.186;2023-09-12T05:25:57;11.77;;;8.77;;
49101;SDS011;34913;47.520;19.186;2023-09-12T05:28:22;12.88;;;8.57;;
49101;SDS011;34913;47.520;19.186;2023-09-12T05:30:48;17.95;;;8.82;;
49101;SDS011;34913;47.520;19.186;2023-09-12T05:33:16;14.25;;;9.20;;
49101;SDS011;34913;47.520;19.186;2023-09-12T05:35:42;13.15;;;9.15;;
49101;SDS011;34913;47.520;19.186;2023-09-12T05:38:09;18.08;;;9.27;;
49101;SDS011;34913;47.520;19.186;2023-09-12T05:40:35;16.92;;;8.98;;
49101;SDS011;34913;47.520;19.186;2023-09-12T05:43:00;12.55;;;8.85;;
49101;SDS011;34913;47.520;19.186;2023-09-12T05:45:26;17.95;;;8.65;;
49101;SDS011;34913;47.520;19.186;2023-09-12T05:47:51;18.25;;;9.07;;
49101;SDS011;34913;47.520;19.186;2023-09-12T05:50:17;17.77;;;9.75;;
49101;SDS011;34913;47.520;19.186;2023-09-12T05:52:42;20.15;;;8.63;;
49101;SDS011;34913;47.520;19.186;2023-09-12T05:55:08;22.23;;;9.05;;
49101;SDS011;34913;47.520;19.186;2023-09-12T05:57:34;15.52;;;8.23;;
49101;SDS011;34913;47.520;19.186;2023-09-12T05:59:59;14.63;;;8.10;;
49101;SDS011;34913;47.520;19.186;2023-09-12T06:02:26;18.17;;;8.32;;
49101;SDS011;34913;47.520;19.186;2023-09-12T06:04:52;13.77;;;8.25;;
49101;SDS011;34913;47.520;19.186;2023-09-12T06:07:17;21.17;;;9.38;;
49101;SDS011;34913;47.520;19.186;2023-09-12T06:09:43;17.08;;;9.27;;
49101;SDS011;34913;47.520;19.186;2023-09-12T06:12:08;15.38;;;7.80;;
49101;SDS011;34913;47.520;19.186;2023-09-12T06:14:34;18.45;;;8.30;;
49101;SDS011;34913;47.520;19.186;2023-09-12T06:16:59;16.95;;;8.35;;
49101;SDS011;34913;47.520;19.186;2023-09-12T06:19:24;17.25;;;8.23;;
49101;SDS011;34913;47.520;19.186;2023-09-12T06:21:50;12.85;;;7.97;;
49101;SDS011;34913;47.520;19.186;2023-09-12T06:24:19;17.77;;;8.15;;
49101;SDS011;34913;47.520;19.186;2023-09-12T06:26:48;22.25;;;8.10;;
49101;SDS011;34913;47.520;19.186;2023-09-12T06:29:14;17.25;;;7.55;;
49101;SDS011;34913;47.520;19.186;2023-09-12T06:31:40;16.95;;;7.85;;
49101;SDS011;34913;47.520;19.186;2023-09-12T06:34:09;23.42;;;8.27;;
49101;SDS011;34913;47.520;19.186;2023-09-12T06:36:34;17.35;;;7.90;;
49101;SDS011;34913;47.520;19.186;2023-09-12T06:39:00;17.02;;;8.55;;
49101;SDS011;34913;47.520;19.186;2023-09-12T06:41:26;25.23;;;7.20;;
49101;SDS011;34913;47.520;19.186;2023-09-12T06:43:52;18.63;;;8.00;;
49101;SDS011;34913;47.520;19.186;2023-09-12T06:46:18;17.13;;;7.80;;
49101;SDS011;34913;47.520;19.186;2023-09-12T06:48:44;22.98;;;7.88;;
49101;SDS011;34913;47.520;19.186;2023-09-12T06:51:10;21.33;;;7.95;;
49101;SDS011;34913;47.520;19.186;2023-09-12T06:53:36;18.55;;;8.60;;
49101;SDS011;34913;47.520;19.186;2023-09-12T06:56:02;20.65;;;7.40;;
49101;SDS011;34913;47.520;19.186;2023-09-12T06:58:28;16.00;;;8.02;;
49101;SDS011;34913;47.520;19.186;2023-09-12T07:00:54;22.73;;;7.63;;
49101;SDS011;34913;47.520;19.186;2023-09-12T07:03:19;26.88;;;8.40;;
49101;SDS011;34913;47.520;19.186;2023-09-12T07:05:44;19.95;;;7.03;;
49101;SDS011;34913;47.520;19.186;2023-09-12T07:08:10;19.27;;;6.72;;
49101;SDS011;34913;47.520;19.186;2023-09-12T07:10:36;16.48;;;6.47;;
49101;SDS011;34913;47.520;19.186;2023-09-12T07:13:02;18.15;;;6.30;;
49101;SDS011;34913;47.520;19.186;2023-09-12T07:15:28;13.55;;;5.80;;
49101;SDS011;34913;47.520;19.186;2023-09-12T07:17:53;18.85;;;6.30;;
49101;SDS011;34913;47.520;19.186;2023-09-12T07:20:19;15.98;;;6.93;;
49101;SDS011;34913;47.520;19.186;2023-09-12T07:22:45;18.98;;;5.97;;
49101;SDS011;34913;47.520;19.186;2023-09-12T07:25:11;15.55;;;5.82;;
49101;SDS011;34913;47.520;19.186;2023-09-12T07:27:38;17.48;;;5.78;;
49101;SDS011;34913;47.520;19.186;2023-09-12T07:30:05;26.15;;;6.82;;
49101;SDS011;34913;47.520;19.186;2023-09-12T07:32:31;13.45;;;5.72;;
49101;SDS011;34913;47.520;19.186;2023-09-12T07:34:57;17.63;;;6.35;;
49101;SDS011;34913;47.520;19.186;2023-09-12T07:37:22;23.13;;;6.38;;
49101;SDS011;34913;47.520;19.186;2023-09-12T07:39:48;23.30;;;5.85;;
49101;SDS011;34913;47.520;19.186;2023-09-12T07:42:13;19.95;;;6.72;;
49101;SDS011;34913;47.520;19.186;2023-09-12T07:44:38;19.98;;;6.40;;
49101;SDS011;34913;47.520;19.186;2023-09-12T07:47:04;14.98;;;5.93;;
49101;SDS011;34913;47.520;19.186;2023-09-12T07:49:32;23.08;;;6.30;;
49101;SDS011;34913;47.520;19.186;2023-09-12T07:51:58;18.92;;;5.90;;
49101;SDS011;34913;47.520;19.186;2023-09-12T07:54:23;22.13;;;5.80;;
49101;SDS011;34913;47.520;19.186;2023-09-12T07:56:49;17.75;;;5.97;;
49101;SDS011;34913;47.520;19.186;2023-09-12T07:59:14;16.92;;;6.07;;
49101;SDS011;34913;47.520;19.186;2023-09-12T08:01:40;18.15;;;5.78;;
49101;SDS011;34913;47.520;19.186;2023-09-12T08:04:05;16.33;;;6.35;;
49101;SDS011;34913;47.520;19.186;2023-09-12T08:06:32;14.82;;;5.72;;
49101;SDS011;34913;47.520;19.186;2023-09-12T08:08:58;17.45;;;5.90;;
49101;SDS011;34913;47.520;19.186;2023-09-12T08:11:24;13.43;;;5.82;;
49101;SDS011;34913;47.520;19.186;2023-09-12T08:13:49;17.52;;;5.68;;
49101;SDS011;34913;47.520;19.186;2023-09-12T08:16:15;15.75;;;6.03;;
49101;SDS011;34913;47.520;19.186;2023-09-12T08:18:41;11.93;;;5.57;;
49101;SDS011;34913;47.520;19.186;2023-09-12T08:21:07;13.80;;;5.43;;
49101;SDS011;34913;47.520;19.186;2023-09-12T08:23:32;14.40;;;5.55;;
49101;SDS011;34913;47.520;19.186;2023-09-12T08:25:59;14.30;;;4.82;;
49101;SDS011;34913;47.520;19.186;2023-09-12T08:28:24;13.48;;;5.65;;
49101;SDS011;34913;47.520;19.186;2023-09-12T08:30:50;13.73;;;5.28;;
49101;SDS011;34913;47.520;19.186;2023-09-12T08:33:16;14.30;;;4.95;;
49101;SDS011;34913;47.520;19.186;2023-09-12T08:35:41;14.13;;;5.40;;
49101;SDS011;34913;47.520;19.186;2023-09-12T08:38:07;15.15;;;4.88;;
49101;SDS011;34913;47.520;19.186;2023-09-12T08:40:33;13.90;;;4.68;;
49101;SDS011;34913;47.520;19.186;2023-09-12T08:43:00;9.80;;;4.72;;
49101;SDS011;34913;47.520;19.186;2023-09-12T08:45:26;14.43;;;5.53;;
49101;SDS011;34913;47.520;19.186;2023-09-12T08:47:53;12.77;;;4.90;;
49101;SDS011;34913;47.520;19.186;2023-09-12T08:50:19;13.13;;;5.30;;
49101;SDS011;34913;47.520;19.186;2023-09-12T08:52:46;13.50;;;5.43;;
49101;SDS011;34913;47.520;19.186;2023-09-12T08:55:12;11.73;;;4.85;;
49101;SDS011;34913;47.520;19.186;2023-09-12T08:57:40;15.00;;;5.55;;
49101;SDS011;34913;47.520;19.186;2023-09-12T09:00:07;10.52;;;5.70;;
49101;SDS011;34913;47.520;19.186;2023-09-12T09:02:38;15.00;;;5.55;;
49101;SDS011;34913;47.520;19.186;2023-09-12T09:05:08;18.33;;;5.78;;
49101;SDS011;34913;47.520;19.186;2023-09-12T09:07:35;14.32;;;5.38;;
49101;SDS011;34913;47.520;19.186;2023-09-12T09:10:03;12.27;;;5.35;;
49101;SDS011;34913;47.520;19.186;2023-09-12T09:12:30;18.88;;;5.03;;
49101;SDS011;34913;47.520;19.186;2023-09-12T09:14:56;11.45;;;5.13;;
49101;SDS011;34913;47.520;19.186;2023-09-12T09:17:22;13.77;;;5.07;;
49101;SDS011;34913;47.520;19.186;2023-09-12T09:19:48;12.07;;;4.88;;
49101;SDS011;34913;47.520;19.186;2023-09-12T09:22:14;13.48;;;5.05;;
49101;SDS011;34913;47.520;19.186;2023-09-12T09:24:39;12.45;;;5.50;;
49101;SDS011;34913;47.520;19.186;2023-09-12T09:27:05;12.63;;;5.20;;
49101;SDS011;34913;47.520;19.186;2023-09-12T09:29:30;12.05;;;4.93;;
49101;SDS011;34913;47.520;19.186;2023-09-12T09:31:59;11.18;;;5.05;;
49101;SDS011;34913;47.520;19.186;2023-09-12T09:34:26;11.43;;;4.90;;
49101;SDS011;34913;47.520;19.186;2023-09-12T09:36:55;12.57;;;4.85;;
49101;SDS011;34913;47.520;19.186;2023-09-12T09:39:22;11.23;;;4.90;;
49101;SDS011;34913;47.520;19.186;2023-09-12T09:41:54;12.52;;;4.80;;
49101;SDS011;34913;47.520;19.186;2023-09-12T09:44:22;12.70;;;4.35;;
49101;SDS011;34913;47.520;19.186;2023-09-12T09:46:51;14.40;;;4.72;;
49101;SDS011;34913;47.520;19.186;2023-09-12T09:49:19;12.00;;;4.63;;
49101;SDS011;34913;47.520;19.186;2023-09-12T09:51:46;8.13;;;4.18;;
49101;SDS011;34913;47.520;19.186;2023-09-12T09:54:12;9.57;;;4.07;;
49101;SDS011;34913;47.520;19.186;2023-09-12T09:59:33;7.80;;;4.10;;
49101;SDS011;34913;47.520;19.186;2023-09-12T10:01:59;15.43;;;4.25;;
49101;SDS011;34913;47.520;19.186;2023-09-12T10:04:28;7.72;;;3.53;;
49101;SDS011;34913;47.520;19.186;2023-09-12T10:06:55;7.43;;;3.97;;
49101;SDS011;34913;47.520;19.186;2023-09-12T10:09:27;6.63;;;3.70;;
49101;SDS011;34913;47.520;19.186;2023-09-12T10:11:54;12.45;;;3.75;;
49101;SDS011;34913;47.520;19.186;2023-09-12T10:14:21;9.13;;;4.30;;
49101;SDS011;34913;47.520;19.186;2023-09-12T10:16:48;10.85;;;3.80;;
49101;SDS011;34913;47.520;19.186;2023-09-12T10:21:57;5.95;;;3.78;;
49101;SDS011;34913;47.520;19.186;2023-09-12T10:24:31;10.68;;;3.65;;
49101;SDS011;34913;47.520;19.186;2023-09-12T10:27:02;9.93;;;3.58;;
49101;SDS011;34913;47.520;19.186;2023-09-12T10:29:38;10.07;;;4.13;;
49101;SDS011;34913;47.520;19.186;2023-09-12T10:32:08;6.95;;;3.85;;
49101;SDS011;34913;47.520;19.186;2023-09-12T10:34:34;6.85;;;4.07;;
49101;SDS011;34913;47.520;19.186;2023-09-12T10:37:03;7.18;;;3.80;;
49101;SDS011;34913;47.520;19.186;2023-09-12T10:39:31;11.30;;;4.20;;
49101;SDS011;34913;47.520;19.186;2023-09-12T10:41:58;11.30;;;4.68;;
49101;SDS011;34913;47.520;19.186;2023-09-12T10:44:24;10.05;;;3.65;;
49101;SDS011;34913;47.520;19.186;2023-09-12T10:46:50;7.65;;;4.00;;
49101;SDS011;34913;47.520;19.186;2023-09-12T10:49:18;9.05;;;3.58;;
49101;SDS011;34913;47.520;19.186;2023-09-12T10:51:44;8.68;;;3.80;;
49101;SDS011;34913;47.520;19.186;2023-09-12T10:54:54;8.25;;;3.92;;
49101;SDS011;34913;47.520;19.186;2023-09-12T10:57:03;10.02;;;3.60;;
49101;SDS011;34913;47.520;19.186;2023-09-12T10:59:29;14.88;;;4.20;;
49101;SDS011;34913;47.520;19.186;2023-09-12T11:04:55;8.00;;;3.78;;
49101;SDS011;34913;47.520;19.186;2023-09-12T11:07:34;9.20;;;3.90;;
49101;SDS011;34913;47.520;19.186;2023-09-12T11:12:40;7.68;;;3.40;;
49101;SDS011;34913;47.520;19.186;2023-09-12T11:15:06;8.63;;;3.75;;
49101;SDS011;34913;47.520;19.186;2023-09-12T11:17:47;10.98;;;3.60;;
49101;SDS011;34913;47.520;19.186;2023-09-12T11:20:14;7.80;;;3.77;;
49101;SDS011;34913;47.520;19.186;2023-09-12T11:22:44;8.27;;;3.88;;
49101;SDS011;34913;47.520;19.186;2023-09-12T11:25:21;6.05;;;3.80;;
49101;SDS011;34913;47.520;19.186;2023-09-12T11:30:17;7.93;;;3.60;;
49101;SDS011;34913;47.520;19.186;2023-09-12T11:32:45;11.63;;;3.65;;
49101;SDS011;34913;47.520;19.186;2023-09-12T11:35:11;10.38;;;4.13;;
49101;SDS011;34913;47.520;19.186;2023-09-12T11:37:38;13.50;;;3.80;;
49101;SDS011;34913;47.520;19.186;2023-09-12T11:40:46;12.75;;;3.65;;
49101;SDS011;34913;47.520;19.186;2023-09-12T11:42:58;7.40;;;3.63;;
49101;SDS011;34913;47.520;19.186;2023-09-12T11:45:24;14.35;;;4.03;;
49101;SDS011;34913;47.520;19.186;2023-09-12T11:47:50;7.35;;;3.60;;
49101;SDS011;34913;47.520;19.186;2023-09-12T11:53:05;12.68;;;3.75;;
49101;SDS011;34913;47.520;19.186;2023-09-12T11:55:45;12.95;;;4.00;;
49101;SDS011;34913;47.520;19.186;2023-09-12T11:58:15;10.45;;;3.60;;
49101;SDS011;34913;47.520;19.186;2023-09-12T12:00:51;10.68;;;3.92;;
49101;SDS011;34913;47.520;19.186;2023-09-12T12:03:19;8.02;;;3.80;;
49101;SDS011;34913;47.520;19.186;2023-09-12T12:05:49;9.48;;;4.13;;
49101;SDS011;34913;47.520;19.186;2023-09-12T12:08:16;8.85;;;3.72;;
49101;SDS011;34913;47.520;19.186;2023-09-12T12:10:42;10.35;;;4.07;;
49101;SDS011;34913;47.520;19.186;2023-09-12T12:13:11;9.13;;;3.92;;
49101;SDS011;34913;47.520;19.186;2023-09-12T12:15:41;12.18;;;4.03;;
49101;SDS011;34913;47.520;19.186;2023-09-12T12:18:07;7.13;;;3.63;;
49101;SDS011;34913;47.520;19.186;2023-09-12T12:20:32;7.57;;;3.88;;
49101;SDS011;34913;47.520;19.186;2023-09-12T12:22:57;7.55;;;3.80;;
49101;SDS011;34913;47.520;19.186;2023-09-12T12:25:23;10.32;;;3.90;;
49101;SDS011;34913;47.520;19.186;2023-09-12T12:27:49;11.27;;;3.47;;
49101;SDS011;34913;47.520;19.186;2023-09-12T12:30:14;9.88;;;3.80;;
49101;SDS011;34913;47.520;19.186;2023-09-12T12:32:43;7.40;;;3.70;;
49101;SDS011;34913;47.520;19.186;2023-09-12T12:35:20;8.60;;;3.88;;
49101;SDS011;34913;47.520;19.186;2023-09-12T12:37:48;21.27;;;3.90;;
49101;SDS011;34913;47.520;19.186;2023-09-12T12:40:16;13.27;;;4.25;;
49101;SDS011;34913;47.520;19.186;2023-09-12T12:42:42;7.63;;;3.53;;
49101;SDS011;34913;47.520;19.186;2023-09-12T12:47:38;18.88;;;3.58;;
49101;SDS011;34913;47.520;19.186;2023-09-12T12:50:14;7.10;;;3.90;;
49101;SDS011;34913;47.520;19.186;2023-09-12T12:52:40;13.88;;;3.78;;
49101;SDS011;34913;47.520;19.186;2023-09-12T12:55:08;8.57;;;3.92;;
49101;SDS011;34913;47.520;19.186;2023-09-12T12:57:35;16.13;;;4.65;;
49101;SDS011;34913;47.520;19.186;2023-09-12T13:00:04;11.75;;;4.00;;
49101;SDS011;34913;47.520;19.186;2023-09-12T13:02:31;14.27;;;3.92;;
49101;SDS011;34913;47.520;19.186;2023-09-12T13:04:57;11.70;;;3.53;;
49101;SDS011;34913;47.520;19.186;2023-09-12T13:07:22;9.30;;;3.75;;
49101;SDS011;34913;47.520;19.186;2023-09-12T13:09:48;13.95;;;3.70;;
49101;SDS011;34913;47.520;19.186;2023-09-12T13:12:13;10.43;;;3.45;;
49101;SDS011;34913;47.520;19.186;2023-09-12T13:14:39;14.38;;;3.80;;
49101;SDS011;34913;47.520;19.186;2023-09-12T13:17:05;10.93;;;3.35;;
49101;SDS011;34913;47.520;19.186;2023-09-12T13:19:30;12.93;;;3.63;;
49101;SDS011;34913;47.520;19.186;2023-09-12T13:21:56;16.33;;;4.20;;
49101;SDS011;34913;47.520;19.186;2023-09-12T13:24:22;11.50;;;3.72;;
49101;SDS011;34913;47.520;19.186;2023-09-12T13:26:48;9.55;;;3.42;;
49101;SDS011;34913;47.520;19.186;2023-09-12T13:29:13;13.38;;;3.70;;
49101;SDS011;34913;47.520;19.186;2023-09-12T13:31:39;16.20;;;3.90;;
49101;SDS011;34913;47.520;19.186;2023-09-12T13:34:04;16.45;;;3.92;;
49101;SDS011;34913;47.520;19.186;2023-09-12T13:36:30;8.45;;;3.58;;
49101;SDS011;34913;47.520;19.186;2023-09-12T13:38:55;11.25;;;3.80;;
49101;SDS011;34913;47.520;19.186;2023-09-12T13:41:21;10.68;;;3.80;;
49101;SDS011;34913;47.520;19.186;2023-09-12T13:43:48;17.30;;;3.85;;
49101;SDS011;34913;47.520;19.186;2023-09-12T13:46:13;13.57;;;3.80;;
49101;SDS011;34913;47.520;19.186;2023-09-12T13:48:39;9.05;;;3.60;;
49101;SDS011;34913;47.520;19.186;2023-09-12T13:51:04;12.07;;;3.47;;
49101;SDS011;34913;47.520;19.186;2023-09-12T13:53:31;15.30;;;4.15;;
49101;SDS011;34913;47.520;19.186;2023-09-12T13:55:56;13.10;;;3.85;;
49101;SDS011;34913;47.520;19.186;2023-09-12T13:58:23;14.05;;;4.35;;
49101;SDS011;34913;47.520;19.186;2023-09-12T14:00:49;13.07;;;4.07;;
49101;SDS011;34913;47.520;19.186;2023-09-12T14:03:14;14.30;;;3.95;;
49101;SDS011;34913;47.520;19.186;2023-09-12T14:05:40;18.33;;;4.57;;
49101;SDS011;34913;47.520;19.186;2023-09-12T14:08:06;14.00;;;4.22;;
49101;SDS011;34913;47.520;19.186;2023-09-12T14:10:31;18.17;;;4.43;;
49101;SDS011;34913;47.520;19.186;2023-09-12T14:12:57;22.80;;;5.22;;
49101;SDS011;34913;47.520;19.186;2023-09-12T14:15:22;16.10;;;3.97;;
49101;SDS011;34913;47.520;19.186;2023-09-12T14:17:48;17.60;;;4.05;;
49101;SDS011;34913;47.520;19.186;2023-09-12T14:20:14;17.92;;;4.22;;
49101;SDS011;34913;47.520;19.186;2023-09-12T14:22:41;13.50;;;3.97;;
49101;SDS011;34913;47.520;19.186;2023-09-12T14:25:07;18.60;;;4.18;;
49101;SDS011;34913;47.520;19.186;2023-09-12T14:27:33;18.85;;;4.40;;
49101;SDS011;34913;47.520;19.186;2023-09-12T14:29:59;15.63;;;4.47;;
49101;SDS011;34913;47.520;19.186;2023-09-12T14:32:24;19.63;;;4.55;;
49101;SDS011;34913;47.520;19.186;2023-09-12T14:34:50;14.38;;;4.20;;
49101;SDS011;34913;47.520;19.186;2023-09-12T14:37:16;10.82;;;3.85;;
49101;SDS011;34913;47.520;19.186;2023-09-12T14:39:41;22.20;;;3.92;;
49101;SDS011;34913;47.520;19.186;2023-09-12T14:42:07;14.02;;;4.20;;
49101;SDS011;34913;47.520;19.186;2023-09-12T14:44:34;18.92;;;4.18;;
49101;SDS011;34913;47.520;19.186;2023-09-12T14:47:00;19.88;;;3.97;;